PWSweather.com
Personal Weather Stations
Station Observations
KMICHEBO10
Cordwood Point, Lake Huron, Cheboygan, MI 49721

Cordwood Point, Lake HuronCheboygan, MI 49721

Lat: 45.663372, Lon: -84.3327789

Elevation: 584

Station Type: Davis Vantage Pro2 Wireless

http://www.lakehuronweather.org

High Low Average
Temperature 50.8°F10.4°C 35.8°F2.1°C 43.2°F6.2°C
Dew Point 42.5°F5.8°C 31.5°F-0.3°C 36.9°F2.7°C
Winds 5.8 mph 9.3 kmh Calm Calm 2.0 mph S3.2 kmh S
Wind Gusts 12.7 mph20.4 kmh 1.2 mph1.9 kmh 4.0 mph6.4 kmh
Humidity 86% 67% 79%
Pressure 30.04 in1017.3 mb 29.74 in1007.1 mb -
Precipitation 0.02 in0.5 mm - -
Hour Temp Dew Point Humidity Winds Wind Gusts Pressure Precip Precip Rate Daily Precip Total
12:00 AM 40.1°F4.5°C 32.5°F0.3°C 74% 2.3 mph SW3.7 kmh SW 3.5 mph5.6 kmh 30.04 in1017.3 mb - 0.00 in0.0 mm 0.00 in0.0 mm
12:10 AM 40.3°F4.6°C 33.3°F0.7°C 76% 2.3 mph SSW3.7 kmh SSW 4.6 mph7.4 kmh 30.04 in1017.3 mb - 0.00 in0.0 mm 0.00 in0.0 mm
12:20 AM 40.3°F4.6°C 33.3°F0.7°C 76% 2.3 mph S3.7 kmh S 4.6 mph7.4 kmh 30.05 in1017.6 mb - 0.00 in0.0 mm 0.00 in0.0 mm
12:30 AM 40.1°F4.5°C 33.5°F0.8°C 77% 2.3 mph S3.7 kmh S 3.5 mph5.6 kmh 30.04 in1017.3 mb - 0.00 in0.0 mm 0.00 in0.0 mm
12:40 AM 40.0°F4.4°C 33.4°F0.8°C 77% 1.2 mph SE1.9 kmh SE 3.5 mph5.6 kmh 30.04 in1017.3 mb - 0.00 in0.0 mm 0.00 in0.0 mm
12:50 AM 39.7°F4.3°C 33.7°F0.9°C 79% 1.2 mph SW1.9 kmh SW 1.2 mph1.9 kmh 30.04 in1017.3 mb - 0.00 in0.0 mm 0.00 in0.0 mm
01:00 AM 39.3°F4.1°C 33.0°F0.6°C 78% 1.2 mph SE1.9 kmh SE 3.5 mph5.6 kmh 30.04 in1017.3 mb - 0.00 in0.0 mm 0.00 in0.0 mm
01:10 AM 39.0°F3.9°C 33.4°F0.8°C 80% 1.2 mph WSW1.9 kmh WSW 2.3 mph3.7 kmh 30.04 in1017.3 mb - 0.00 in0.0 mm 0.00 in0.0 mm
01:20 AM 38.6°F3.7°C 33.6°F0.9°C 82% Calm Calm 1.2 mph1.9 kmh 30.04 in1017.3 mb - 0.00 in0.0 mm 0.00 in0.0 mm
01:30 AM 38.3°F3.5°C 33.3°F0.7°C 82% Calm Calm 1.2 mph1.9 kmh 30.03 in1016.9 mb - 0.00 in0.0 mm 0.00 in0.0 mm
01:40 AM 38.1°F3.4°C 33.1°F0.6°C 82% Calm Calm 1.2 mph1.9 kmh 30.03 in1016.9 mb - 0.00 in0.0 mm 0.00 in0.0 mm
01:50 AM 38.0°F3.3°C 33.3°F0.7°C 83% Calm Calm 1.2 mph1.9 kmh 30.03 in1016.9 mb - 0.00 in0.0 mm 0.00 in0.0 mm
02:00 AM 37.9°F3.3°C 33.5°F0.8°C 84% Calm Calm 1.2 mph1.9 kmh 30.03 in1016.9 mb - 0.00 in0.0 mm 0.00 in0.0 mm
02:10 AM 37.8°F3.2°C 33.1°F0.6°C 83% 1.2 mph SW1.9 kmh SW 3.5 mph5.6 kmh 30.03 in1016.9 mb - 0.00 in0.0 mm 0.00 in0.0 mm
02:20 AM 38.0°F3.3°C 33.6°F0.9°C 84% 2.3 mph SW3.7 kmh SW 4.6 mph7.4 kmh 30.02 in1016.6 mb - 0.00 in0.0 mm 0.00 in0.0 mm
02:30 AM 38.2°F3.4°C 33.5°F0.8°C 83% 1.2 mph W1.9 kmh W 2.3 mph3.7 kmh 30.02 in1016.6 mb - 0.00 in0.0 mm 0.00 in0.0 mm
02:40 AM 38.6°F3.7°C 33.3°F0.7°C 81% 1.2 mph S1.9 kmh S 3.5 mph5.6 kmh 30.02 in1016.6 mb - 0.00 in0.0 mm 0.00 in0.0 mm
02:50 AM 38.8°F3.8°C 33.8°F1.0°C 82% Calm Calm 1.2 mph1.9 kmh 30.01 in1016.3 mb - 0.00 in0.0 mm 0.00 in0.0 mm
03:00 AM 39.0°F3.9°C 33.0°F0.6°C 79% Calm Calm 1.2 mph1.9 kmh 30.01 in1016.3 mb - 0.00 in0.0 mm 0.00 in0.0 mm
03:10 AM 39.1°F3.9°C 33.5°F0.8°C 80% 1.2 mph SW1.9 kmh SW 3.5 mph5.6 kmh 30.01 in1016.3 mb - 0.00 in0.0 mm 0.00 in0.0 mm
03:20 AM 39.3°F4.1°C 34.0°F1.1°C 81% 1.2 mph WSW1.9 kmh WSW 1.2 mph1.9 kmh 30.01 in1016.3 mb - 0.00 in0.0 mm 0.00 in0.0 mm
03:30 AM 39.3°F4.1°C 34.3°F1.3°C 82% 1.2 mph SW1.9 kmh SW 1.2 mph1.9 kmh 30.00 in1015.9 mb - 0.00 in0.0 mm 0.00 in0.0 mm
03:40 AM 39.3°F4.1°C 34.2°F1.2°C 82% Calm Calm 1.2 mph1.9 kmh 30.00 in1015.9 mb - 0.00 in0.0 mm 0.00 in0.0 mm
03:50 AM 39.3°F4.1°C 34.2°F1.2°C 82% 1.2 mph SSE1.9 kmh SSE 2.3 mph3.7 kmh 29.99 in1015.6 mb - 0.00 in0.0 mm 0.00 in0.0 mm
04:00 AM 39.4°F4.1°C 34.0°F1.1°C 81% Calm Calm 2.3 mph3.7 kmh 29.99 in1015.6 mb - 0.00 in0.0 mm 0.00 in0.0 mm
04:10 AM 39.4°F4.1°C 34.1°F1.2°C 81% 1.2 mph S1.9 kmh S 3.5 mph5.6 kmh 29.98 in1015.2 mb - 0.00 in0.0 mm 0.00 in0.0 mm
04:20 AM 39.3°F4.1°C 33.3°F0.7°C 79% 1.2 mph SSW1.9 kmh SSW 3.5 mph5.6 kmh 29.98 in1015.2 mb - 0.00 in0.0 mm 0.00 in0.0 mm
04:30 AM 39.2°F4.0°C 32.9°F0.5°C 78% 1.2 mph SSW1.9 kmh SSW 1.2 mph1.9 kmh 29.98 in1015.2 mb - 0.00 in0.0 mm 0.00 in0.0 mm
04:40 AM 39.1°F3.9°C 33.5°F0.8°C 80% 1.2 mph SE1.9 kmh SE 2.3 mph3.7 kmh 29.97 in1014.9 mb - 0.00 in0.0 mm 0.00 in0.0 mm
04:50 AM 38.9°F3.8°C 33.0°F0.6°C 79% Calm Calm 1.2 mph1.9 kmh 29.97 in1014.9 mb - 0.00 in0.0 mm 0.00 in0.0 mm
05:00 AM 38.8°F3.8°C 32.9°F0.5°C 79% 1.2 mph ESE1.9 kmh ESE 2.3 mph3.7 kmh 29.97 in1014.9 mb - 0.00 in0.0 mm 0.00 in0.0 mm
05:10 AM 38.8°F3.8°C 33.2°F0.7°C 80% 1.2 mph S1.9 kmh S 2.3 mph3.7 kmh 29.95 in1014.2 mb - 0.00 in0.0 mm 0.00 in0.0 mm
05:20 AM 38.7°F3.7°C 33.1°F0.6°C 80% 1.2 mph SE1.9 kmh SE 2.3 mph3.7 kmh 29.95 in1014.2 mb - 0.00 in0.0 mm 0.00 in0.0 mm
05:30 AM 38.5°F3.6°C 32.9°F0.5°C 80% Calm Calm 2.3 mph3.7 kmh 29.95 in1014.2 mb - 0.00 in0.0 mm 0.00 in0.0 mm
05:40 AM 38.4°F3.6°C 32.8°F0.4°C 80% 1.2 mph SSW1.9 kmh SSW 2.3 mph3.7 kmh 29.94 in1013.9 mb - 0.00 in0.0 mm 0.00 in0.0 mm
05:50 AM 38.2°F3.4°C 32.6°F0.3°C 80% 1.2 mph SW1.9 kmh SW 2.3 mph3.7 kmh 29.94 in1013.9 mb - 0.00 in0.0 mm 0.00 in0.0 mm
06:00 AM 37.9°F3.3°C 32.6°F0.3°C 81% 1.2 mph SSW1.9 kmh SSW 2.3 mph3.7 kmh 29.94 in1013.9 mb - 0.00 in0.0 mm 0.00 in0.0 mm
06:10 AM 37.4°F3.0°C 32.4°F0.2°C 82% Calm Calm 1.2 mph1.9 kmh 29.93 in1013.5 mb - 0.00 in0.0 mm 0.00 in0.0 mm
06:20 AM 37.0°F2.8°C 32.3°F0.2°C 83% 1.2 mph SE1.9 kmh SE 1.2 mph1.9 kmh 29.93 in1013.5 mb - 0.00 in0.0 mm 0.00 in0.0 mm
06:30 AM 36.6°F2.6°C 32.2°F0.1°C 84% 1.2 mph S1.9 kmh S 3.5 mph5.6 kmh 29.92 in1013.2 mb - 0.00 in0.0 mm 0.00 in0.0 mm
06:40 AM 36.4°F2.4°C 32.0°F0.0°C 84% 1.2 mph SSW1.9 kmh SSW 2.3 mph3.7 kmh 29.91 in1012.9 mb - 0.00 in0.0 mm 0.00 in0.0 mm
06:50 AM 36.3°F2.4°C 32.2°F0.1°C 85% 1.2 mph SSW1.9 kmh SSW 3.5 mph5.6 kmh 29.91 in1012.9 mb - 0.00 in0.0 mm 0.00 in0.0 mm
07:00 AM 36.2°F2.3°C 32.1°F0.1°C 85% 1.2 mph SSE1.9 kmh SSE 1.2 mph1.9 kmh 29.91 in1012.9 mb - 0.00 in0.0 mm 0.00 in0.0 mm
07:10 AM 36.0°F2.2°C 31.6°F-0.2°C 84% 1.2 mph SW1.9 kmh SW 1.2 mph1.9 kmh 29.91 in1012.9 mb - 0.00 in0.0 mm 0.00 in0.0 mm
07:20 AM 35.9°F2.2°C 31.5°F-0.3°C 84% 1.2 mph S1.9 kmh S 2.3 mph3.7 kmh 29.90 in1012.5 mb - 0.00 in0.0 mm 0.00 in0.0 mm
07:30 AM 35.8°F2.1°C 31.7°F-0.2°C 85% 1.2 mph SE1.9 kmh SE 3.5 mph5.6 kmh 29.89 in1012.2 mb - 0.00 in0.0 mm 0.00 in0.0 mm
07:40 AM 35.9°F2.2°C 31.8°F-0.1°C 85% 1.2 mph ESE1.9 kmh ESE 2.3 mph3.7 kmh 29.89 in1012.2 mb - 0.00 in0.0 mm 0.00 in0.0 mm
07:50 AM 36.1°F2.3°C 32.0°F0.0°C 85% 1.2 mph SSW1.9 kmh SSW 1.2 mph1.9 kmh 29.88 in1011.9 mb - 0.00 in0.0 mm 0.00 in0.0 mm
08:00 AM 36.5°F2.5°C 32.1°F0.1°C 84% 2.3 mph S3.7 kmh S 3.5 mph5.6 kmh 29.87 in1011.5 mb - 0.00 in0.0 mm 0.00 in0.0 mm
08:10 AM 37.0°F2.8°C 32.3°F0.2°C 83% 2.3 mph SSE3.7 kmh SSE 3.5 mph5.6 kmh 29.87 in1011.5 mb - 0.00 in0.0 mm 0.00 in0.0 mm
08:20 AM 37.4°F3.0°C 32.1°F0.1°C 81% 3.5 mph S5.6 kmh S 6.9 mph11.1 kmh 29.86 in1011.2 mb - 0.00 in0.0 mm 0.00 in0.0 mm
08:30 AM 38.0°F3.3°C 32.3°F0.2°C 80% 1.2 mph SE1.9 kmh SE 3.5 mph5.6 kmh 29.86 in1011.2 mb - 0.00 in0.0 mm 0.00 in0.0 mm
08:40 AM 38.4°F3.6°C 32.8°F0.4°C 80% 2.3 mph S3.7 kmh S 4.6 mph7.4 kmh 29.86 in1011.2 mb - 0.00 in0.0 mm 0.00 in0.0 mm
08:50 AM 38.7°F3.7°C 32.7°F0.4°C 79% 1.2 mph S1.9 kmh S 3.5 mph5.6 kmh 29.86 in1011.2 mb - 0.00 in0.0 mm 0.00 in0.0 mm
09:00 AM 38.9°F3.8°C 32.9°F0.5°C 79% 2.3 mph S3.7 kmh S 5.8 mph9.3 kmh 29.86 in1011.2 mb - 0.00 in0.0 mm 0.00 in0.0 mm
09:10 AM 39.4°F4.1°C 33.4°F0.8°C 79% 1.2 mph NW1.9 kmh NW 3.5 mph5.6 kmh 29.87 in1011.5 mb - 0.00 in0.0 mm 0.00 in0.0 mm
09:20 AM 39.7°F4.3°C 33.4°F0.8°C 78% 1.2 mph SSE1.9 kmh SSE 5.8 mph9.3 kmh 29.87 in1011.5 mb - 0.00 in0.0 mm 0.00 in0.0 mm
09:30 AM 40.0°F4.4°C 33.7°F0.9°C 78% 2.3 mph SW3.7 kmh SW 6.9 mph11.1 kmh 29.86 in1011.2 mb - 0.00 in0.0 mm 0.00 in0.0 mm
09:40 AM 40.5°F4.7°C 33.9°F1.1°C 77% 1.2 mph S1.9 kmh S 4.6 mph7.4 kmh 29.86 in1011.2 mb - 0.00 in0.0 mm 0.00 in0.0 mm
09:50 AM 41.3°F5.2°C 34.6°F1.4°C 77% 1.2 mph SE1.9 kmh SE 2.3 mph3.7 kmh 29.85 in1010.8 mb - 0.00 in0.0 mm 0.00 in0.0 mm
10:00 AM 42.3°F5.7°C 35.2°F1.8°C 76% 2.3 mph SW3.7 kmh SW 3.5 mph5.6 kmh 29.85 in1010.8 mb - 0.00 in0.0 mm 0.00 in0.0 mm
10:10 AM 43.3°F6.3°C 35.9°F2.2°C 75% 5.8 mph SSE9.3 kmh SSE 11.5 mph18.5 kmh 29.84 in1010.5 mb - 0.00 in0.0 mm 0.00 in0.0 mm
10:20 AM 44.6°F7.0°C 36.5°F2.5°C 73% 3.5 mph S5.6 kmh S 11.5 mph18.5 kmh 29.84 in1010.5 mb - 0.00 in0.0 mm 0.00 in0.0 mm
10:30 AM 45.6°F7.6°C 36.4°F2.4°C 70% 4.6 mph SW7.4 kmh SW 10.4 mph16.7 kmh 29.84 in1010.5 mb - 0.00 in0.0 mm 0.00 in0.0 mm
10:40 AM 46.3°F7.9°C 36.7°F2.6°C 69% 4.6 mph S7.4 kmh S 8.1 mph13.0 kmh 29.84 in1010.5 mb - 0.00 in0.0 mm 0.00 in0.0 mm
10:50 AM 46.7°F8.2°C 37.1°F2.8°C 69% 4.6 mph SSW7.4 kmh SSW 6.9 mph11.1 kmh 29.84 in1010.5 mb - 0.00 in0.0 mm 0.00 in0.0 mm
11:00 AM 47.2°F8.4°C 36.8°F2.7°C 67% 3.5 mph S5.6 kmh S 4.6 mph7.4 kmh 29.83 in1010.2 mb - 0.00 in0.0 mm 0.00 in0.0 mm
11:10 AM 47.2°F8.4°C 37.2°F2.9°C 68% 1.2 mph NNW1.9 kmh NNW 4.6 mph7.4 kmh 29.83 in1010.2 mb - 0.00 in0.0 mm 0.00 in0.0 mm
11:20 AM 47.2°F8.4°C 37.5°F3.1°C 69% 1.2 mph ESE1.9 kmh ESE 2.3 mph3.7 kmh 29.82 in1009.8 mb - 0.00 in0.0 mm 0.00 in0.0 mm
11:30 AM 47.2°F8.4°C 37.9°F3.3°C 70% 3.5 mph ENE5.6 kmh ENE 10.4 mph16.7 kmh 29.82 in1009.8 mb - 0.00 in0.0 mm 0.00 in0.0 mm
11:40 AM 47.1°F8.4°C 37.8°F3.2°C 70% 1.2 mph SW1.9 kmh SW 6.9 mph11.1 kmh 29.82 in1009.8 mb - 0.00 in0.0 mm 0.00 in0.0 mm
11:50 AM 47.0°F8.3°C 38.8°F3.8°C 73% 1.2 mph SE1.9 kmh SE 2.3 mph3.7 kmh 29.82 in1009.8 mb - 0.00 in0.0 mm 0.00 in0.0 mm
12:00 PM 46.9°F8.3°C 39.4°F4.1°C 75% 3.5 mph S5.6 kmh S 9.2 mph14.8 kmh 29.82 in1009.8 mb - 0.00 in0.0 mm 0.00 in0.0 mm
12:10 PM 46.6°F8.1°C 40.1°F4.5°C 78% 2.3 mph SW3.7 kmh SW 4.6 mph7.4 kmh 29.82 in1009.8 mb - 0.00 in0.0 mm 0.00 in0.0 mm
12:20 PM 46.0°F7.8°C 40.5°F4.7°C 81% 2.3 mph SSE3.7 kmh SSE 2.3 mph3.7 kmh 29.82 in1009.8 mb - 0.00 in0.0 mm 0.00 in0.0 mm
12:30 PM 45.4°F7.4°C 40.6°F4.8°C 83% 1.2 mph W1.9 kmh W 5.8 mph9.3 kmh 29.81 in1009.5 mb - 0.00 in0.0 mm 0.00 in0.0 mm
12:40 PM 45.2°F7.3°C 40.7°F4.8°C 84% 2.3 mph W3.7 kmh W 3.5 mph5.6 kmh 29.82 in1009.8 mb - 0.00 in0.0 mm 0.00 in0.0 mm
12:50 PM 45.3°F7.4°C 40.5°F4.7°C 83% 2.3 mph SW3.7 kmh SW 3.5 mph5.6 kmh 29.81 in1009.5 mb - 0.00 in0.0 mm 0.00 in0.0 mm
01:40 PM 47.9°F8.8°C 40.3°F4.6°C 75% 3.5 mph SSE5.6 kmh SSE 4.6 mph7.4 kmh 29.79 in1008.8 mb - 0.00 in0.0 mm 0.00 in0.0 mm
01:50 PM 48.3°F9.1°C 40.0°F4.4°C 73% 3.5 mph SE5.6 kmh SE 3.5 mph5.6 kmh 29.78 in1008.5 mb - 0.00 in0.0 mm 0.00 in0.0 mm
02:20 PM 48.9°F9.4°C 40.6°F4.8°C 73% 3.5 mph SSW5.6 kmh SSW 4.6 mph7.4 kmh 29.77 in1008.1 mb - 0.00 in0.0 mm 0.00 in0.0 mm
02:40 PM 49.9°F9.9°C 40.8°F4.9°C 71% 3.5 mph SW5.6 kmh SW 5.8 mph9.3 kmh 29.77 in1008.1 mb - 0.00 in0.0 mm 0.00 in0.0 mm
02:50 PM 49.5°F9.7°C 40.5°F4.7°C 71% 4.6 mph WSW7.4 kmh WSW 8.1 mph13.0 kmh 29.76 in1007.8 mb - 0.00 in0.0 mm 0.00 in0.0 mm
03:00 PM 49.6°F9.8°C 40.6°F4.8°C 71% 4.6 mph SW7.4 kmh SW 10.4 mph16.7 kmh 29.75 in1007.5 mb - 0.00 in0.0 mm 0.00 in0.0 mm
03:10 PM 50.4°F10.2°C 41.0°F5.0°C 70% 5.8 mph SSW9.3 kmh SSW 8.1 mph13.0 kmh 29.75 in1007.5 mb - 0.00 in0.0 mm 0.00 in0.0 mm
03:20 PM 50.8°F10.4°C 41.0°F5.0°C 69% 3.5 mph S5.6 kmh S 8.1 mph13.0 kmh 29.75 in1007.5 mb - 0.00 in0.0 mm 0.00 in0.0 mm
03:30 PM 50.5°F10.3°C 41.1°F5.1°C 70% 2.3 mph SW3.7 kmh SW 6.9 mph11.1 kmh 29.75 in1007.5 mb - 0.00 in0.0 mm 0.00 in0.0 mm
03:40 PM 50.5°F10.3°C 41.1°F5.1°C 70% 3.5 mph S5.6 kmh S 5.8 mph9.3 kmh 29.75 in1007.5 mb - 0.00 in0.0 mm 0.00 in0.0 mm
03:50 PM 50.6°F10.3°C 41.2°F5.1°C 70% 1.2 mph W1.9 kmh W 3.5 mph5.6 kmh 29.75 in1007.5 mb - 0.00 in0.0 mm 0.00 in0.0 mm
04:00 PM 50.5°F10.3°C 41.4°F5.2°C 71% 4.6 mph SSW7.4 kmh SSW 12.7 mph20.4 kmh 29.75 in1007.5 mb - 0.00 in0.0 mm 0.00 in0.0 mm
04:10 PM 50.1°F10.1°C 41.5°F5.3°C 72% 3.5 mph S5.6 kmh S 5.8 mph9.3 kmh 29.74 in1007.1 mb - 0.00 in0.0 mm 0.00 in0.0 mm
04:20 PM 50.0°F10.0°C 41.7°F5.4°C 73% 2.3 mph NW3.7 kmh NW 5.8 mph9.3 kmh 29.74 in1007.1 mb - 0.00 in0.0 mm 0.00 in0.0 mm
04:30 PM 50.0°F10.0°C 41.7°F5.4°C 73% 1.2 mph ESE1.9 kmh ESE 4.6 mph7.4 kmh 29.74 in1007.1 mb - 0.00 in0.0 mm 0.00 in0.0 mm
04:40 PM 50.1°F10.1°C 42.1°F5.6°C 74% 1.2 mph SW1.9 kmh SW 5.8 mph9.3 kmh 29.75 in1007.5 mb - 0.00 in0.0 mm 0.00 in0.0 mm
04:50 PM 50.0°F10.0°C 41.7°F5.4°C 73% 3.5 mph SSE5.6 kmh SSE 3.5 mph5.6 kmh 29.75 in1007.5 mb - 0.00 in0.0 mm 0.00 in0.0 mm
05:00 PM 49.8°F9.9°C 42.2°F5.7°C 75% 1.2 mph SW1.9 kmh SW 6.9 mph11.1 kmh 29.75 in1007.5 mb - 0.00 in0.0 mm 0.00 in0.0 mm
05:10 PM 49.4°F9.7°C 41.8°F5.4°C 75% 2.3 mph WSW3.7 kmh WSW 11.5 mph18.5 kmh 29.75 in1007.5 mb - 0.00 in0.0 mm 0.00 in0.0 mm
05:20 PM 49.2°F9.6°C 41.6°F5.3°C 75% 3.5 mph SSE5.6 kmh SSE 6.9 mph11.1 kmh 29.75 in1007.5 mb - 0.00 in0.0 mm 0.00 in0.0 mm
05:30 PM 49.1°F9.5°C 41.5°F5.3°C 75% 3.5 mph W5.6 kmh W 3.5 mph5.6 kmh 29.74 in1007.1 mb - 0.00 in0.0 mm 0.00 in0.0 mm
05:40 PM 49.1°F9.5°C 41.9°F5.5°C 76% 3.5 mph NNE5.6 kmh NNE 4.6 mph7.4 kmh 29.75 in1007.5 mb - 0.00 in0.0 mm 0.00 in0.0 mm
05:50 PM 49.0°F9.4°C 41.8°F5.4°C 76% 2.3 mph NNE3.7 kmh NNE 4.6 mph7.4 kmh 29.75 in1007.5 mb - 0.00 in0.0 mm 0.00 in0.0 mm
06:00 PM 48.9°F9.4°C 41.3°F5.2°C 75% 2.3 mph S3.7 kmh S 3.5 mph5.6 kmh 29.75 in1007.5 mb - 0.00 in0.0 mm 0.00 in0.0 mm
06:10 PM 48.7°F9.3°C 41.5°F5.3°C 76% 1.2 mph ESE1.9 kmh ESE 3.5 mph5.6 kmh 29.75 in1007.5 mb - 0.00 in0.0 mm 0.00 in0.0 mm
06:20 PM 48.5°F9.2°C 41.6°F5.3°C 77% 2.3 mph SE3.7 kmh SE 5.8 mph9.3 kmh 29.76 in1007.8 mb - 0.00 in0.0 mm 0.00 in0.0 mm
06:30 PM 48.4°F9.1°C 42.2°F5.7°C 79% 2.3 mph S3.7 kmh S 3.5 mph5.6 kmh 29.76 in1007.8 mb - 0.00 in0.0 mm 0.00 in0.0 mm
06:40 PM 48.3°F9.1°C 42.1°F5.6°C 79% 2.3 mph S3.7 kmh S 6.9 mph11.1 kmh 29.77 in1008.1 mb - 0.00 in0.0 mm 0.00 in0.0 mm
06:50 PM 48.3°F9.1°C 42.4°F5.8°C 80% 1.2 mph NW1.9 kmh NW 6.9 mph11.1 kmh 29.77 in1008.1 mb - 0.00 in0.0 mm 0.00 in0.0 mm
07:00 PM 48.2°F9.0°C 42.3°F5.7°C 80% 2.3 mph SW3.7 kmh SW 4.6 mph7.4 kmh 29.77 in1008.1 mb - 0.00 in0.0 mm 0.00 in0.0 mm
07:10 PM 48.1°F8.9°C 42.5°F5.8°C 81% 2.3 mph WSW3.7 kmh WSW 2.3 mph3.7 kmh 29.77 in1008.1 mb - 0.00 in0.0 mm 0.00 in0.0 mm
07:20 PM 48.1°F8.9°C 42.5°F5.8°C 81% 1.2 mph 1.9 kmh 4.6 mph7.4 kmh 29.79 in1008.8 mb - 0.00 in0.0 mm 0.00 in0.0 mm
07:30 PM 46.8°F8.2°C 40.9°F4.9°C 80% 2.3 mph NNE3.7 kmh NNE 9.2 mph14.8 kmh 29.80 in1009.1 mb - 0.00 in0.0 mm 0.00 in0.0 mm
07:40 PM 45.6°F7.6°C 40.7°F4.8°C 83% 1.2 mph N1.9 kmh N 2.3 mph3.7 kmh 29.80 in1009.1 mb - 0.00 in0.0 mm 0.00 in0.0 mm
07:50 PM 44.7°F7.1°C 40.5°F4.7°C 85% 1.2 mph NE1.9 kmh NE 2.3 mph3.7 kmh 29.81 in1009.5 mb - 0.01 in0.3 mm 0.01 in0.3 mm
08:00 PM 44.4°F6.9°C 40.5°F4.7°C 86% 1.2 mph N1.9 kmh N 3.5 mph5.6 kmh 29.81 in1009.5 mb - 0.00 in0.0 mm 0.01 in0.3 mm
08:10 PM 44.4°F6.9°C 39.9°F4.4°C 84% 2.3 mph NW3.7 kmh NW 8.1 mph13.0 kmh 29.82 in1009.8 mb - 0.00 in0.0 mm 0.01 in0.3 mm
08:20 PM 44.3°F6.8°C 39.2°F4.0°C 82% 2.3 mph N3.7 kmh N 5.8 mph9.3 kmh 29.82 in1009.8 mb - 0.00 in0.0 mm 0.01 in0.3 mm
08:30 PM 44.7°F7.1°C 38.6°F3.7°C 79% 1.2 mph NNE1.9 kmh NNE 2.3 mph3.7 kmh 29.82 in1009.8 mb - 0.00 in0.0 mm 0.01 in0.3 mm
08:40 PM 45.1°F7.3°C 39.6°F4.2°C 81% 1.2 mph NNE1.9 kmh NNE 3.5 mph5.6 kmh 29.81 in1009.5 mb - 0.00 in0.0 mm 0.01 in0.3 mm
08:50 PM 45.1°F7.3°C 38.3°F3.5°C 77% 2.3 mph NNW3.7 kmh NNW 4.6 mph7.4 kmh 29.81 in1009.5 mb - 0.00 in0.0 mm 0.01 in0.3 mm
09:00 PM 45.2°F7.3°C 38.7°F3.7°C 78% 1.2 mph N1.9 kmh N 2.3 mph3.7 kmh 29.81 in1009.5 mb - 0.00 in0.0 mm 0.01 in0.3 mm
09:10 PM 45.1°F7.3°C 38.3°F3.5°C 77% 2.3 mph ENE3.7 kmh ENE 3.5 mph5.6 kmh 29.82 in1009.8 mb - 0.01 in0.3 mm 0.02 in0.5 mm
09:20 PM 45.0°F7.2°C 38.2°F3.4°C 77% 2.3 mph NE3.7 kmh NE 4.6 mph7.4 kmh 29.82 in1009.8 mb - 0.00 in0.0 mm 0.02 in0.5 mm
09:30 PM 45.0°F7.2°C 38.2°F3.4°C 77% 2.3 mph N3.7 kmh N 3.5 mph5.6 kmh 29.82 in1009.8 mb - 0.00 in0.0 mm 0.02 in0.5 mm
09:40 PM 44.9°F7.2°C 38.1°F3.4°C 77% 2.3 mph N3.7 kmh N 3.5 mph5.6 kmh 29.82 in1009.8 mb - 0.00 in0.0 mm 0.02 in0.5 mm
09:50 PM 44.9°F7.2°C 38.1°F3.4°C 77% 1.2 mph N1.9 kmh N 3.5 mph5.6 kmh 29.83 in1010.2 mb - 0.00 in0.0 mm 0.02 in0.5 mm
10:00 PM 44.9°F7.2°C 38.5°F3.6°C 78% 2.3 mph NNE3.7 kmh NNE 5.8 mph9.3 kmh 29.83 in1010.2 mb - 0.00 in0.0 mm 0.02 in0.5 mm
10:10 PM 45.0°F7.2°C 38.2°F3.4°C 77% 2.3 mph N3.7 kmh N 4.6 mph7.4 kmh 29.84 in1010.5 mb - 0.00 in0.0 mm 0.02 in0.5 mm
10:20 PM 45.0°F7.2°C 38.2°F3.4°C 77% 3.5 mph NNE5.6 kmh NNE 3.5 mph5.6 kmh 29.84 in1010.5 mb - 0.00 in0.0 mm 0.02 in0.5 mm
10:30 PM 44.8°F7.1°C 38.3°F3.5°C 78% 3.5 mph NNE5.6 kmh NNE 5.8 mph9.3 kmh 29.84 in1010.5 mb - 0.00 in0.0 mm 0.02 in0.5 mm
10:40 PM 44.4°F6.9°C 38.3°F3.5°C 79% 3.5 mph NNE5.6 kmh NNE 4.6 mph7.4 kmh 29.85 in1010.8 mb - 0.00 in0.0 mm 0.02 in0.5 mm
10:50 PM 44.0°F6.7°C 38.2°F3.4°C 80% 1.2 mph N1.9 kmh N 3.5 mph5.6 kmh 29.85 in1010.8 mb - 0.00 in0.0 mm 0.02 in0.5 mm
11:00 PM 43.6°F6.4°C 37.5°F3.1°C 79% 1.2 mph NNE1.9 kmh NNE 3.5 mph5.6 kmh 29.85 in1010.8 mb - 0.00 in0.0 mm 0.02 in0.5 mm
11:10 PM 43.2°F6.2°C 37.4°F3.0°C 80% 2.3 mph NNW3.7 kmh NNW 5.8 mph9.3 kmh 29.85 in1010.8 mb - 0.00 in0.0 mm 0.02 in0.5 mm
11:20 PM 42.8°F6.0°C 37.3°F2.9°C 81% 2.3 mph N3.7 kmh N 3.5 mph5.6 kmh 29.86 in1011.2 mb - 0.00 in0.0 mm 0.02 in0.5 mm
11:30 PM 42.5°F5.8°C 37.4°F3.0°C 82% 3.5 mph NNE5.6 kmh NNE 5.8 mph9.3 kmh 29.86 in1011.2 mb - 0.00 in0.0 mm 0.02 in0.5 mm
11:40 PM 42.4°F5.8°C 37.9°F3.3°C 84% 3.5 mph N5.6 kmh N 3.5 mph5.6 kmh 29.86 in1011.2 mb - 0.00 in0.0 mm 0.02 in0.5 mm
11:50 PM 42.1°F5.6°C 37.6°F3.1°C 84% 2.3 mph N3.7 kmh N 4.6 mph7.4 kmh 29.86 in1011.2 mb - 0.00 in0.0 mm 0.02 in0.5 mm